createdAt,value
2018-05-03T16:59:50.261Z,23.3
2018-05-03T17:09:49.226Z,23.5
2018-05-03T17:19:48.546Z,23.6
2018-05-03T17:29:48.066Z,23.6
2018-05-03T17:39:46.853Z,23.7
2018-05-03T17:49:46.267Z,23.8
2018-05-03T17:59:45.494Z,23.8
2018-05-03T18:09:44.586Z,23.8
2018-05-03T18:19:43.861Z,23.9
2018-05-03T18:29:43.019Z,23.8
2018-05-03T18:39:42.296Z,23.8
2018-05-03T18:49:41.580Z,23.8
2018-05-03T18:59:41.362Z,23.8
2018-05-03T19:09:40.212Z,23.6
2018-05-03T19:19:39.150Z,23.3
2018-05-03T19:29:38.570Z,23.2
2018-05-03T19:39:37.706Z,23.1
2018-05-03T19:49:36.810Z,23
2018-05-03T19:59:36.092Z,22.9
2018-05-03T20:09:35.271Z,22.8
2018-05-03T20:19:34.633Z,22.8
2018-05-03T20:29:33.795Z,22.7
2018-05-03T20:39:33.046Z,22.6
2018-05-03T20:49:32.145Z,22.6
2018-05-03T20:59:31.653Z,22.7
2018-05-03T21:09:30.637Z,22.7
2018-05-03T21:19:29.809Z,22.7
2018-05-03T21:29:29.071Z,22.6
2018-05-03T21:39:28.236Z,22.6
2018-05-03T21:49:27.514Z,22.6
2018-05-03T21:59:26.708Z,22.7
2018-05-03T22:09:25.908Z,22.6
2018-05-03T22:19:25.131Z,22.6
2018-05-03T22:29:24.343Z,22.6
2018-05-03T22:39:23.904Z,22.6
2018-05-03T22:49:22.944Z,22.6
2018-05-03T22:59:22.132Z,22.6
2018-05-03T23:09:21.279Z,22.6
2018-05-03T23:19:20.502Z,22.6
2018-05-03T23:29:20.108Z,22.6
2018-05-03T23:39:18.963Z,22.6
2018-05-03T23:49:18.159Z,22.6
2018-05-03T23:59:17.729Z,22.5
